Terminal Aerodrome Forecast
Issued by NWS

Home | Current Version | Previous Version | Graphics & Text | Print | Product List | Glossary On
Versions: 1 2 3 4 5 6 7 8 9 10 11 12 13 14 15
000
FTUS41 KCLE 302333
TAFFDY
TAF
KFDY 302333Z 0100/0124 24008KT P6SM VCTS SCT040CB
     FM010300 25005KT P6SM SCT015 BKN050
      TEMPO 0109/0112 4SM BR OVC007
     FM011200 30007KT P6SM OVC015
     FM011500 30006KT P6SM BKN025
     FM011700 30006KT P6SM BKN040=

USA.gov is the U.S. government's official web portal to all federal, state and local government web resources and services.